Terminal Aerodrome Forecast
Issued by NWS

Home | Current Version | Previous Version | Graphics & Text | Print | Product List | Glossary On
Versions: 1 2 3 4 5 6 7 8 9 10 11 12 13 14
533
FTUS41 KCLE 020522
TAFFDY
TAF
KFDY 020522Z 0206/0306 24014KT P6SM SCT025 OVC040
      TEMPO 0208/0211 BKN025
     FM021100 24014KT P6SM OVC025
     FM021800 27014G22KT P6SM SCT025 OVC035=

USA.gov is the U.S. government's official web portal to all federal, state and local government web resources and services.